Terminal Aerodrome Forecast
Issued by NWS Sterling, VA

Current Version | Previous Version | Text Only | Print | Product List | Glossary Off
Versions: 1 2 3 4 5 6 7 8 9 10 11 12 13 14 15 16 17 18 19 20 21 22 23 24 25 26

000
FTUS41 KLWX 161500 AAB
TAFMRB
TAF AMD
KMRB 161508Z 1615/1712 00000KT 1SM RA BR BKN003 OVC040
     FM161700 VRB03KT 5SM -SHRA OVC020
     FM162000 18006KT P6SM OVC025
     FM170000 23004KT P6SM SCT050=

USA.gov is the U.S. government's official web portal to all federal, state and local government web resources and services.